Time;durP1;ratioP1;P1;durP2;ratioP2;P2;SDS_P1;SDS_P2;PMS_P1;PMS_P2;Temp;Humidity;BMP_temperature;BMP_pressure;BME280_temperature;BME280_humidity;BME280_pressure;Samples;Min_cycle;Max_cycle;Signal;HPM_P1;HPM_P2
2022/02/01 00:03:38;;;;;;;11.38;4.05;;;;;;;2.29;88.92;148244.39;1771854;79;21126;-59
2022/02/01 00:06:12;;;;;;;9.20;3.52;;;;;;;2.28;88.45;148241.81;1789782;79;22278;-59
2022/02/01 00:13:54;;;;;;;8.73;3.98;;;;;;;2.27;87.11;148239.25;1772808;79;20920;-61
2022/02/01 00:16:37;;;;;;;9.95;3.92;;;;;;;2.27;86.66;148239.25;1785735;79;21070;-60
2022/02/01 00:38:11;;;;;;;11.28;4.47;;;;;;;1.96;86.69;148161.91;1753311;79;21147;-59
2022/02/01 00:40:26;;;;;;;12.68;4.62;;;;;;;1.92;86.87;148151.59;1740452;79;21065;-59
2022/02/01 00:42:53;;;;;;;10.18;4.30;;;;;;;1.88;86.85;148139.98;1737571;80;21092;-58
2022/02/01 00:45:20;;;;;;;11.18;4.20;;;;;;;1.83;86.93;148128.38;1739096;80;21092;-59
2022/02/01 00:47:47;;;;;;;14.87;4.55;;;;;;;1.78;87.00;148115.50;1739453;80;21005;-59
2022/02/01 00:50:15;;;;;;;12.28;4.60;;;;;;;1.73;86.98;148102.63;1741975;78;21143;-59
2022/02/01 00:52:44;;;;;;;10.88;4.20;;;;;;;1.67;87.03;148089.75;1739587;80;21116;-58
2022/02/01 00:55:10;;;;;;;17.07;4.42;;;;;;;1.63;86.96;148078.13;1741494;80;21096;-59
2022/02/01 00:57:38;;;;;;;10.85;4.55;;;;;;;1.59;86.87;148069.09;1741935;80;21425;-58
2022/02/01 01:00:07;;;;;;;11.20;5.47;;;;;;;1.55;86.76;148058.78;1739972;80;21489;-59
2022/02/01 01:02:34;;;;;;;14.43;4.80;;;;;;;1.48;86.56;148040.77;1741449;80;21523;-60
2022/02/01 01:05:01;;;;;;;17.05;5.35;;;;;;;1.41;86.55;148025.27;1740632;80;21048;-59
2022/02/01 01:07:27;;;;;;;12.05;4.72;;;;;;;1.37;86.44;148014.97;1740967;80;21064;-59
2022/02/01 01:09:55;;;;;;;11.78;4.70;;;;;;;1.35;86.47;148009.81;1741430;80;21135;-60
2022/02/01 01:12:25;;;;;;;12.70;4.72;;;;;;;1.34;86.48;148007.25;1741929;80;21127;-59
2022/02/01 01:15:14;;;;;;;11.03;4.75;;;;;;;1.30;86.38;147996.95;1742628;80;21024;-60
2022/02/01 01:44:54;;;;;;;13.20;4.95;;;;;;;0.97;86.25;147914.48;1742919;80;21111;-59
2022/02/01 01:53:12;;;;;;;10.03;5.00;;;;;;;0.92;86.69;147901.63;1742391;80;21083;-59
2022/02/01 01:55:39;;;;;;;9.65;4.80;;;;;;;0.90;86.83;147896.47;1742401;80;21205;-59
2022/02/01 01:58:06;;;;;;;12.45;5.60;;;;;;;0.87;87.01;147890.02;1741356;80;21099;-60
2022/02/01 02:03:04;;;;;;;11.48;4.85;;;;;;;0.79;87.37;147870.73;1741860;79;21032;-59
2022/02/01 02:05:31;;;;;;;13.53;5.22;;;;;;;0.78;87.56;147868.16;1741855;80;21091;-58
2022/02/01 02:07:58;;;;;;;11.73;5.72;;;;;;;0.74;87.69;147857.81;1741829;80;21132;-59
2022/02/01 02:10:30;;;;;;;15.85;5.90;;;;;;;0.71;87.87;147850.09;1742137;80;21504;-59
2022/02/01 02:13:02;;;;;;;17.45;6.83;;;;;;;0.67;88.07;147839.81;1743290;80;21847;-58
2022/02/01 02:15:45;;;;;;;17.10;6.42;;;;;;;0.63;88.21;147829.52;1744535;80;21581;-60
2022/02/01 02:18:05;;;;;;;14.38;5.62;;;;;;;0.63;88.34;147829.52;1743702;80;21614;-60
2022/02/01 02:20:42;;;;;;;14.80;6.47;;;;;;;0.60;88.37;147821.78;1741681;80;21112;-59
2022/02/01 02:23:09;;;;;;;14.03;6.00;;;;;;;0.58;88.28;147816.64;1743662;80;21097;-59
2022/02/01 02:25:38;;;;;;;17.10;6.37;;;;;;;0.55;88.15;147811.50;1741912;80;20986;-60
2022/02/01 02:28:06;;;;;;;20.08;6.62;;;;;;;0.54;88.01;147808.88;1741018;78;20984;-61
2022/02/01 02:30:33;;;;;;;15.28;6.10;;;;;;;0.52;87.95;147803.73;1741674;80;21595;-59
2022/02/01 02:33:06;;;;;;;16.93;6.35;;;;;;;0.50;87.99;147798.59;1742113;80;21104;-60
2022/02/01 02:35:42;;;;;;;16.45;6.92;;;;;;;0.52;88.02;147802.47;1741204;80;21033;-59
2022/02/01 02:38:11;;;;;;;15.40;7.42;;;;;;;0.50;88.02;147797.33;1746932;79;21058;-60
2022/02/01 02:41:27;;;;;;;18.25;8.10;;;;;;;0.49;88.01;147796.02;1761757;79;21067;-60
2022/02/01 02:45:50;;;;;;;13.03;6.25;;;;;;;0.49;87.88;147794.75;1716964;79;21160;-59
2022/02/01 02:48:16;;;;;;;13.48;6.80;;;;;;;0.45;87.69;147785.72;1759006;79;21114;-60
2022/02/01 02:50:44;;;;;;;17.10;6.67;;;;;;;0.41;87.63;147775.44;1759519;79;21028;-60
2022/02/01 02:53:11;;;;;;;16.15;6.83;;;;;;;0.37;87.67;147765.14;1761748;79;21064;-60
2022/02/01 02:55:37;;;;;;;14.38;7.20;;;;;;;0.37;87.87;147765.14;1760483;79;21083;-60
2022/02/01 02:58:04;;;;;;;20.90;8.55;;;;;;;0.38;87.84;147768.97;1762645;79;21930;-60
2022/02/01 03:00:31;;;;;;;19.65;8.55;;;;;;;0.38;87.79;147767.72;1760624;79;21027;-60
2022/02/01 03:02:57;;;;;;;15.93;6.80;;;;;;;0.38;87.81;147768.97;1761449;79;21083;-60
2022/02/01 03:05:24;;;;;;;16.60;6.90;;;;;;;0.37;87.75;147765.14;1761966;79;21080;-58
2022/02/01 03:07:51;;;;;;;11.93;6.25;;;;;;;0.37;87.66;147765.14;1776876;79;21044;-59
2022/02/01 03:10:18;;;;;;;16.35;7.25;;;;;;;0.38;87.53;147767.72;1765645;79;21892;-59
2022/02/01 03:20:43;;;;;;;19.92;7.37;;;;;;;0.38;86.99;147767.72;1779017;79;21577;-60
2022/02/01 03:23:09;;;;;;;16.70;7.20;;;;;;;0.37;86.88;147766.41;1779541;79;21608;-59
2022/02/01 03:25:36;;;;;;;19.55;7.08;;;;;;;0.37;86.77;147765.14;1777315;79;21013;-60
2022/02/01 03:28:04;;;;;;;19.25;7.10;;;;;;;0.35;86.69;147761.27;1763646;79;21421;-59
2022/02/01 03:30:31;;;;;;;13.48;6.22;;;;;;;0.35;86.58;147760.00;1750504;80;21027;-60
2022/02/01 03:32:57;;;;;;;11.40;6.17;;;;;;;0.32;86.31;147752.23;1762215;79;21080;-59
2022/02/01 03:35:25;;;;;;;15.43;6.17;;;;;;;0.28;86.22;147744.52;1759714;79;22464;-59
2022/02/01 03:37:51;;;;;;;14.43;7.30;;;;;;;0.26;86.25;147738.11;1759918;78;21433;-59
2022/02/01 03:40:20;;;;;;;13.28;6.65;;;;;;;0.23;86.09;147731.66;1758994;79;21090;-59
2022/02/01 03:42:47;;;;;;;15.40;6.60;;;;;;;0.22;86.01;147727.77;1762005;79;20988;-59
2022/02/01 03:45:14;;;;;;;17.02;6.92;;;;;;;0.22;86.04;147729.08;1761403;79;21154;-60
2022/02/01 03:47:41;;;;;;;17.07;6.55;;;;;;;0.23;86.05;147730.39;1760676;79;21166;-60
2022/02/01 03:50:07;;;;;;;22.95;7.33;;;;;;;0.26;86.06;147738.11;1758700;79;21579;-60
2022/02/01 03:52:35;;;;;;;15.28;6.70;;;;;;;0.25;86.05;147736.80;1761556;79;21623;-59
2022/02/01 03:55:02;;;;;;;18.87;7.75;;;;;;;0.26;85.96;147739.37;1759448;79;21062;-58
2022/02/01 03:57:29;;;;;;;17.70;7.00;;;;;;;0.25;85.95;147736.80;1761441;79;21022;-58
2022/02/01 03:59:56;;;;;;;21.45;7.85;;;;;;;0.27;85.92;147740.69;1758757;79;21138;-59
2022/02/01 04:02:23;;;;;;;16.75;7.92;;;;;;;0.25;85.74;147736.80;1760485;79;21119;-59
2022/02/01 04:04:53;;;;;;;18.52;7.60;;;;;;;0.22;85.61;147729.08;1762919;79;20981;-59
2022/02/01 04:07:21;;;;;;;17.20;7.90;;;;;;;0.21;85.57;147726.50;1760437;79;21118;-60
2022/02/01 04:09:50;;;;;;;18.35;8.03;;;;;;;0.19;85.51;147720.06;1761805;79;21074;-58
2022/02/01 04:12:17;;;;;;;18.55;8.25;;;;;;;0.20;85.54;147723.94;1759915;79;21573;-59
2022/02/01 04:14:46;;;;;;;21.55;7.72;;;;;;;0.19;85.34;147720.06;1758972;79;20941;-60
2022/02/01 04:17:13;;;;;;;16.02;7.05;;;;;;;0.17;85.17;147714.91;1759214;79;21118;-61
2022/02/01 04:19:42;;;;;;;20.62;7.37;;;;;;;0.14;85.00;147709.77;1757888;79;21146;-59
2022/02/01 04:22:09;;;;;;;18.73;7.20;;;;;;;0.15;84.98;147711.08;1760156;79;21090;-59
2022/02/01 04:24:41;;;;;;;18.62;6.97;;;;;;;0.13;84.84;147705.94;1759944;79;21071;-60
2022/02/01 04:27:11;;;;;;;17.15;6.67;;;;;;;0.12;84.72;147703.36;1761894;79;21066;-59
2022/02/01 04:29:44;;;;;;;18.37;7.08;;;;;;;0.13;84.52;147705.94;1758218;79;20981;-59
2022/02/01 04:32:08;;;;;;;14.20;6.50;;;;;;;0.13;84.35;147705.94;1760996;79;21083;-59
2022/02/01 04:34:35;;;;;;;17.32;6.60;;;;;;;0.12;84.24;147704.63;1762758;79;21078;-58
2022/02/01 04:37:02;;;;;;;16.95;7.28;;;;;;;0.13;84.10;147705.94;1762669;79;21041;-59
2022/02/01 04:39:29;;;;;;;19.52;7.42;;;;;;;0.14;84.01;147709.77;1761882;79;21542;-59
2022/02/01 04:41:56;;;;;;;19.35;7.40;;;;;;;0.15;83.90;147711.08;1761104;79;21083;-59
2022/02/01 04:44:23;;;;;;;19.10;8.13;;;;;;;0.16;83.87;147712.34;1781005;79;21042;-59
2022/02/01 04:46:50;;;;;;;25.35;9.95;;;;;;;0.16;83.68;147712.34;1778410;79;21023;-59
2022/02/01 04:49:16;;;;;;;19.80;8.35;;;;;;;0.15;83.62;147711.08;1777414;79;21059;-59
2022/02/01 04:51:43;;;;;;;19.15;8.20;;;;;;;0.13;83.56;147707.19;1762372;79;21647;-58
2022/02/01 04:54:10;;;;;;;15.98;6.97;;;;;;;0.14;83.43;147709.77;1761118;79;21098;-58
2022/02/01 04:56:37;;;;;;;17.62;6.97;;;;;;;0.12;83.29;147703.36;1738313;79;21026;-59
2022/02/01 04:59:06;;;;;;;20.97;7.30;;;;;;;0.15;83.25;147711.08;1759280;79;21076;-59
2022/02/01 05:01:40;;;;;;;17.35;7.67;;;;;;;0.16;82.96;147713.66;1756677;79;21596;-59
2022/02/01 05:04:08;;;;;;;19.77;8.18;;;;;;;0.15;82.86;147711.08;1761179;79;21063;-58
2022/02/01 05:06:36;;;;;;;15.90;7.25;;;;;;;0.16;82.73;147713.66;1760530;79;21533;-60
2022/02/01 05:09:02;;;;;;;16.45;7.20;;;;;;;0.17;82.51;147714.91;1760804;79;21092;-59
2022/02/01 05:11:30;;;;;;;17.92;7.20;;;;;;;0.17;82.33;147716.22;1760527;79;21066;-59
2022/02/01 05:14:13;;;;;;;18.17;7.60;;;;;;;0.18;82.06;147718.80;1761577;79;21146;-59
2022/02/01 05:16:58;;;;;;;17.40;7.28;;;;;;;0.21;81.84;147725.20;1759350;79;21127;-59
2022/02/01 05:19:31;;;;;;;18.45;6.83;;;;;;;0.23;81.49;147730.39;1758990;79;21064;-59
2022/02/01 05:21:46;;;;;;;16.57;6.53;;;;;;;0.22;81.12;147727.77;1757219;79;21075;-59
2022/02/01 05:24:13;;;;;;;20.88;6.83;;;;;;;0.20;80.99;147723.94;1760019;79;21679;-60
2022/02/01 05:26:42;;;;;;;15.05;6.60;;;;;;;0.19;80.81;147721.38;1776689;79;21784;-59
2022/02/01 05:29:09;;;;;;;16.52;6.53;;;;;;;0.17;80.74;147716.22;1794460;78;21210;-59
2022/02/01 05:31:36;;;;;;;15.78;7.25;;;;;;;0.17;80.65;147716.22;1778280;79;21014;-59
2022/02/01 05:34:04;;;;;;;16.23;6.47;;;;;;;0.17;80.55;147716.22;1777602;79;21552;-60
2022/02/01 05:36:30;;;;;;;15.25;6.70;;;;;;;0.18;80.39;147718.80;1762713;79;21897;-60
2022/02/01 05:38:57;;;;;;;16.17;5.95;;;;;;;0.19;80.21;147721.38;1765715;78;21615;-60
2022/02/01 05:41:26;;;;;;;19.60;6.65;;;;;;;0.19;80.02;147721.38;1783162;78;21074;-60
2022/02/01 05:43:52;;;;;;;16.52;5.60;;;;;;;0.21;79.85;147726.50;1780675;78;21470;-59
2022/02/01 05:46:19;;;;;;;14.83;6.05;;;;;;;0.25;79.57;147736.80;1759523;79;21110;-60
2022/02/01 05:48:46;;;;;;;13.43;6.10;;;;;;;0.27;79.38;147741.94;1788099;78;21034;-60
2022/02/01 05:51:12;;;;;;;19.80;7.15;;;;;;;0.32;79.22;147752.23;1792634;78;21138;-59
2022/02/01 05:53:39;;;;;;;18.57;7.25;;;;;;;0.37;79.07;147765.14;1788893;78;21418;-60
2022/02/01 05:56:06;;;;;;;21.20;7.58;;;;;;;0.41;78.96;147775.44;1791594;78;21055;-61
2022/02/01 05:58:33;;;;;;;17.32;6.83;;;;;;;0.45;78.89;147785.72;1790919;78;21090;-61
2022/02/01 06:00:59;;;;;;;18.77;7.28;;;;;;;0.47;78.49;147789.61;1791343;78;21088;-61
2022/02/01 06:03:27;;;;;;;15.25;6.70;;;;;;;0.49;78.09;147796.02;1793444;78;21512;-59
2022/02/01 06:05:54;;;;;;;21.37;7.40;;;;;;;0.50;77.76;147797.33;1789349;78;21026;-58
2022/02/01 06:08:22;;;;;;;19.85;8.13;;;;;;;0.51;77.43;147801.16;1793315;78;21567;-60
2022/02/01 06:10:49;;;;;;;17.40;6.70;;;;;;;0.55;77.47;147811.50;1789286;78;21080;-60
2022/02/01 06:13:16;;;;;;;18.92;6.87;;;;;;;0.60;77.36;147823.05;1793580;78;21480;-60
2022/02/01 06:15:43;;;;;;;24.27;8.60;;;;;;;0.66;77.11;147837.23;1789970;78;21130;-62
2022/02/01 06:18:09;;;;;;;26.17;9.00;;;;;;;0.71;77.20;147850.09;1791762;78;21491;-61
2022/02/01 06:20:36;;;;;;;20.45;9.25;;;;;;;0.78;77.37;147868.16;1791037;78;21052;-61
2022/02/01 06:23:03;;;;;;;24.60;9.68;;;;;;;0.87;77.49;147888.75;1792488;78;21473;-60
2022/02/01 06:28:08;;;;;;;22.73;10.30;;;;;;;1.05;77.59;147935.13;1768659;78;21808;-60
2022/02/01 06:30:35;;;;;;;22.48;8.83;;;;;;;1.16;77.45;147962.17;1789832;78;21320;-60
2022/02/01 06:33:02;;;;;;;22.10;8.48;;;;;;;1.24;77.14;147981.50;1802344;78;21019;-60
2022/02/01 06:35:30;;;;;;;23.02;9.50;;;;;;;1.31;76.69;147998.22;1805511;78;21532;-60
2022/02/01 06:37:57;;;;;;;19.15;8.80;;;;;;;1.40;76.37;148021.44;1788089;78;21082;-60
2022/02/01 06:40:24;;;;;;;19.95;8.75;;;;;;;1.48;76.00;148040.77;1781701;78;21164;-61
2022/02/01 06:42:51;;;;;;;19.67;8.85;;;;;;;1.55;75.62;148058.78;1778591;79;21043;-62
2022/02/01 06:45:18;;;;;;;23.52;8.80;;;;;;;1.64;75.35;148080.70;1765712;79;21046;-59
2022/02/01 06:47:44;;;;;;;18.42;8.30;;;;;;;1.74;75.05;148106.45;1736348;79;21107;-59
2022/02/01 06:50:13;;;;;;;24.90;10.35;;;;;;;1.85;74.79;148134.84;1760559;79;21044;-61
2022/02/01 06:52:39;;;;;;;42.48;14.98;;;;;;;1.96;74.37;148161.91;1760175;79;21544;-60
2022/02/01 06:55:07;;;;;;;45.08;14.53;;;;;;;2.07;74.02;148188.97;1759770;79;21092;-61
2022/02/01 06:57:38;;;;;;;39.70;14.68;;;;;;;2.20;73.58;148221.20;1781161;79;21041;-60
2022/02/01 07:00:09;;;;;;;37.25;14.68;;;;;;;2.29;73.10;148244.39;1766334;79;21119;-64
2022/02/01 07:02:37;;;;;;;39.85;16.02;;;;;;;2.39;72.65;148267.63;1761883;79;21422;-59
2022/02/01 07:05:05;;;;;;;36.68;13.68;;;;;;;2.47;72.31;148288.25;1773882;79;21133;-60
2022/02/01 07:07:32;;;;;;;39.03;14.23;;;;;;;2.54;72.04;148306.34;1766426;79;21095;-60
2022/02/01 07:09:59;;;;;;;44.00;15.03;;;;;;;2.65;71.82;148332.11;1762056;79;21047;-60
2022/02/01 07:12:26;;;;;;;48.80;17.00;;;;;;;2.74;71.51;148354.03;1761113;79;21101;-60
2022/02/01 07:14:54;;;;;;;40.30;16.10;;;;;;;2.83;71.21;148378.55;1758058;79;22349;-59
2022/02/01 07:17:24;;;;;;;32.05;14.43;;;;;;;2.95;70.84;148406.91;1774166;78;21745;-60
2022/02/01 07:19:51;;;;;;;32.78;13.72;;;;;;;3.03;70.32;148427.58;1758228;79;21443;-60
2022/02/01 07:22:18;;;;;;;29.30;12.95;;;;;;;3.12;70.08;148450.78;1757406;79;21071;-60
2022/02/01 07:25:11;;;;;;;31.70;12.65;;;;;;;3.23;69.74;148477.87;1757766;79;21096;-60
2022/02/01 07:27:37;;;;;;;25.08;12.60;;;;;;;3.34;69.24;148504.97;1755808;79;21028;-60
2022/02/01 07:29:51;;;;;;;25.40;12.45;;;;;;;3.44;68.76;148530.81;1753393;79;21264;-60
2022/02/01 07:32:17;;;;;;;27.82;11.33;;;;;;;3.53;68.47;148551.45;1760053;79;21649;-60
2022/02/01 07:34:44;;;;;;;39.45;10.98;;;;;;;3.63;68.23;148577.25;1758015;79;21072;-60
2022/02/01 07:37:11;;;;;;;35.25;10.63;;;;;;;3.73;68.06;148603.09;1756832;79;21067;-60
2022/02/01 07:39:38;;;;;;;38.85;11.33;;;;;;;3.83;67.74;148626.30;1751261;79;21025;-61
2022/02/01 07:42:06;;;;;;;31.52;10.63;;;;;;;3.92;67.55;148649.56;1742788;80;21136;-60
2022/02/01 07:44:34;;;;;;;31.25;11.95;;;;;;;4.00;67.30;148670.20;1740292;80;21112;-59
2022/02/01 07:47:01;;;;;;;22.20;10.20;;;;;;;4.09;67.21;148690.84;1740955;80;21092;-59
2022/02/01 07:49:27;;;;;;;30.02;10.15;;;;;;;4.20;67.08;148719.28;1742629;80;21523;-59
2022/02/01 07:51:55;;;;;;;23.75;9.13;;;;;;;4.32;66.99;148747.72;1741891;80;21036;-60
2022/02/01 07:54:22;;;;;;;20.95;9.18;;;;;;;4.42;66.90;148774.84;1739061;80;22337;-60
2022/02/01 07:56:49;;;;;;;28.70;11.38;;;;;;;4.52;66.70;148799.34;1744030;80;21534;-60
2022/02/01 07:59:16;;;;;;;41.70;19.17;;;;;;;4.55;66.17;148807.13;1732551;80;21030;-60
2022/02/01 08:01:42;;;;;;;44.08;20.95;;;;;;;4.64;66.15;148829.09;1738162;80;21771;-60
2022/02/01 08:04:09;;;;;;;41.63;19.27;;;;;;;4.76;65.54;148858.81;1728687;80;21108;-60
2022/02/01 08:06:36;;;;;;;38.78;17.07;;;;;;;4.76;65.54;148858.81;1742026;80;21600;-59
2022/02/01 08:09:11;;;;;;;38.95;15.60;;;;;;;4.81;65.37;148871.72;1740798;80;21350;-59
2022/02/01 08:11:32;;;;;;;31.85;14.78;;;;;;;4.91;65.14;148896.27;1738421;80;21069;-60
2022/02/01 08:16:46;;;;;;;37.33;15.05;;;;;;;5.02;64.33;148923.41;1737290;80;21155;-60
2022/02/01 08:19:15;;;;;;;34.33;16.32;;;;;;;5.07;63.80;148935.00;1734127;80;21068;-60
2022/02/01 08:21:43;;;;;;;30.62;14.78;;;;;;;5.13;63.55;148951.81;1736426;80;21531;-60
2022/02/01 08:24:05;;;;;;;37.93;16.77;;;;;;;5.21;62.94;148971.20;1729339;80;21039;-60
2022/02/01 08:26:33;;;;;;;31.05;14.53;;;;;;;5.24;62.29;148978.95;1731916;80;21064;-60
2022/02/01 08:28:59;;;;;;;32.38;15.15;;;;;;;5.33;62.39;148999.66;1717374;80;21408;-60
2022/02/01 08:31:28;;;;;;;29.55;12.63;;;;;;;5.39;62.25;149016.42;1736959;80;21056;-60
2022/02/01 08:33:56;;;;;;;28.40;11.73;;;;;;;5.47;61.96;149035.81;1733084;80;21013;-60
2022/02/01 08:36:22;;;;;;;24.07;11.93;;;;;;;5.53;61.50;149051.37;1728608;80;21611;-59
2022/02/01 08:38:49;;;;;;;23.35;10.50;;;;;;;5.56;61.23;149059.12;1738547;80;21084;-59
2022/02/01 08:41:16;;;;;;;30.55;9.78;;;;;;;5.53;61.45;149051.37;1732756;80;21054;-59
2022/02/01 08:43:43;;;;;;;26.15;10.08;;;;;;;5.56;61.74;149057.80;1738345;80;21550;-60
2022/02/01 08:46:09;;;;;;;20.60;9.78;;;;;;;5.57;61.93;149061.70;1738167;80;21073;-60
2022/02/01 08:48:37;;;;;;;19.17;9.85;;;;;;;5.64;61.98;149078.52;1736985;80;21049;-60
2022/02/01 08:51:07;;;;;;;22.20;10.18;;;;;;;5.67;61.92;149086.27;1733587;80;21323;-60
2022/02/01 08:53:45;;;;;;;19.35;9.68;;;;;;;5.69;62.00;149091.44;1754730;79;21573;-60
2022/02/01 08:56:03;;;;;;;20.92;9.53;;;;;;;5.73;61.93;149101.77;1731387;80;21133;-60
2022/02/01 08:58:30;;;;;;;29.60;10.95;;;;;;;5.80;61.88;149117.28;1758299;79;21437;-60
2022/02/01 09:00:59;;;;;;;58.85;12.88;;;;;;;5.82;61.40;149122.44;1754301;79;21779;-64
2022/02/01 09:03:27;;;;;;;60.52;14.15;;;;;;;5.76;61.14;149106.94;1760558;79;21792;-60
2022/02/01 09:05:54;;;;;;;54.85;14.15;;;;;;;5.60;61.33;149068.13;1723610;79;21281;-59
2022/02/01 09:08:23;;;;;;;47.25;14.13;;;;;;;5.48;61.81;149037.14;1746716;79;21141;-60
2022/02/01 09:10:51;;;;;;;54.48;14.03;;;;;;;5.43;62.13;149026.81;1749800;80;21845;-62
2022/02/01 09:13:18;;;;;;;61.50;15.53;;;;;;;5.40;62.36;149017.73;1734394;80;22172;-61
2022/02/01 09:15:45;;;;;;;47.25;14.07;;;;;;;5.41;62.45;149020.31;1734274;81;21126;-60
2022/02/01 09:18:12;;;;;;;62.05;16.42;;;;;;;5.42;62.49;149024.22;1757914;79;21079;-62
2022/02/01 09:20:42;;;;;;;54.23;14.98;;;;;;;5.43;62.70;149025.48;1763790;79;21099;-63
2022/02/01 09:23:09;;;;;;;63.33;16.85;;;;;;;5.43;62.70;149025.48;1731254;81;21094;-61
2022/02/01 09:25:36;;;;;;;68.20;19.07;;;;;;;5.43;62.85;149026.81;1761976;79;21098;-62
2022/02/01 09:28:04;;;;;;;74.22;18.92;;;;;;;5.42;62.98;149024.22;1766911;79;21071;-63
2022/02/01 09:30:32;;;;;;;64.92;18.27;;;;;;;5.42;63.11;149024.22;1758094;79;21135;-59
2022/02/01 09:33:00;;;;;;;75.85;22.70;;;;;;;5.40;63.24;149019.00;1758213;79;21124;-61
2022/02/01 09:35:27;;;;;;;86.35;21.87;;;;;;;5.39;63.30;149016.42;1766197;79;21063;-65
2022/02/01 09:37:54;;;;;;;82.72;22.13;;;;;;;5.39;63.70;149015.16;1755829;79;21074;-63
2022/02/01 09:40:20;;;;;;;85.67;32.17;;;;;;;5.42;64.08;149024.22;1733035;80;22090;-62
2022/02/01 09:42:48;;;;;;;81.20;25.97;;;;;;;5.45;64.24;149031.97;1739659;80;21029;-63
2022/02/01 09:45:14;;;;;;;72.62;23.67;;;;;;;5.47;64.41;149034.56;1740346;80;21076;-63
2022/02/01 09:47:47;;;;;;;62.23;19.52;;;;;;;5.49;64.59;149040.98;1738751;80;21092;-63
2022/02/01 09:50:10;;;;;;;56.18;15.40;;;;;;;5.52;64.63;149048.73;1734752;80;21502;-62
2022/02/01 09:52:39;;;;;;;65.08;14.47;;;;;;;5.57;64.47;149060.39;1739415;80;21088;-62
2022/02/01 09:55:09;;;;;;;51.13;14.60;;;;;;;5.59;64.32;149065.55;1741381;80;21044;-65
2022/02/01 09:57:37;;;;;;;56.35;15.28;;;;;;;5.61;63.60;149069.45;1739283;80;21146;-63
2022/02/01 10:00:13;;;;;;;48.80;15.85;;;;;;;5.60;63.27;149068.13;1743429;80;21056;-64
2022/02/01 10:02:39;;;;;;;47.33;15.93;;;;;;;5.63;63.13;149075.89;1742501;80;21494;-63
2022/02/01 10:05:08;;;;;;;49.30;17.10;;;;;;;5.66;62.21;149083.69;1759935;79;21152;-63
2022/02/01 10:07:56;;;;;;;50.30;14.65;;;;;;;5.68;62.62;149087.53;1772975;79;22317;-64
2022/02/01 10:10:28;;;;;;;43.68;13.90;;;;;;;5.71;62.55;149095.28;1750226;79;21485;-64
2022/02/01 10:13:18;;;;;;;39.75;12.30;;;;;;;5.78;62.65;149112.11;1759378;79;21146;-63
2022/02/01 10:15:37;;;;;;;40.88;14.05;;;;;;;5.80;62.32;149118.59;1755407;79;21091;-63
2022/02/01 10:18:08;;;;;;;37.90;11.80;;;;;;;5.83;61.88;149126.34;1762441;79;21020;-63
2022/02/01 10:20:42;;;;;;;23.75;11.12;;;;;;;5.86;61.52;149132.81;1736636;79;21182;-64
2022/02/01 10:23:28;;;;;;;25.48;11.45;;;;;;;5.86;60.94;149132.81;1760936;79;23149;-63
2022/02/01 10:26:08;;;;;;;29.75;13.30;;;;;;;5.87;61.00;149135.41;1756214;79;21046;-64
2022/02/01 10:31:43;;;;;;;34.05;16.10;;;;;;;6.02;60.49;149172.95;1656496;84;21095;-62
2022/02/01 10:37:03;;;;;;;27.65;11.35;;;;;;;6.15;59.01;149205.28;1742545;80;21207;-63
2022/02/01 10:39:33;;;;;;;31.75;14.30;;;;;;;6.17;58.47;149210.44;1740287;80;21116;-63
2022/02/01 10:42:05;;;;;;;32.95;14.35;;;;;;;6.21;58.57;149220.78;1754451;80;21026;-62
2022/02/01 10:44:48;;;;;;;32.28;14.53;;;;;;;6.24;58.87;149228.53;1765142;80;21665;-62
2022/02/01 10:47:20;;;;;;;36.38;15.28;;;;;;;6.28;59.42;149238.88;1740097;79;21067;-63
2022/02/01 10:49:47;;;;;;;28.23;13.75;;;;;;;6.30;59.91;149242.78;1761624;79;21557;-63
2022/02/01 10:52:15;;;;;;;29.87;14.15;;;;;;;6.33;60.16;149249.27;1759563;79;21114;-63
2022/02/01 10:54:43;;;;;;;33.08;14.73;;;;;;;6.32;60.36;149247.94;1774675;79;21118;-64
2022/02/01 10:57:11;;;;;;;35.35;15.48;;;;;;;6.32;60.53;149246.69;1758480;79;21123;-59
2022/02/01 10:59:42;;;;;;;32.40;14.63;;;;;;;6.30;60.50;149244.09;1777019;79;21761;-60
2022/02/01 11:02:19;;;;;;;36.83;15.32;;;;;;;6.26;60.38;149233.70;1776697;79;21769;-60
2022/02/01 11:04:54;;;;;;;34.53;14.87;;;;;;;6.24;60.29;149227.27;1768473;79;20977;-60
2022/02/01 11:07:25;;;;;;;36.68;16.52;;;;;;;6.23;60.19;149225.95;1761765;79;21119;-61
2022/02/01 11:09:53;;;;;;;39.35;16.57;;;;;;;6.22;60.12;149223.37;1774147;79;21064;-60
2022/02/01 11:12:27;;;;;;;45.23;17.62;;;;;;;6.25;60.16;149231.13;1736526;80;21170;-60
2022/02/01 11:14:59;;;;;;;39.25;16.42;;;;;;;6.28;59.65;149238.88;1747500;80;21115;-60
2022/02/01 11:17:40;;;;;;;42.75;18.17;;;;;;;6.34;59.22;149253.13;1765670;79;21270;-60
2022/02/01 11:20:10;;;;;;;37.48;16.27;;;;;;;6.36;58.79;149257.02;1762735;79;21130;-60
2022/02/01 11:22:40;;;;;;;34.88;15.30;;;;;;;6.38;58.65;149263.45;1773339;79;21783;-60
2022/02/01 11:25:21;;;;;;;32.65;14.80;;;;;;;6.39;58.38;149264.78;1778022;79;21091;-60
2022/02/01 11:28:20;;;;;;;30.92;14.83;;;;;;;6.38;58.10;149262.19;1772929;79;21635;-60
2022/02/01 11:30:20;;;;;;;29.85;13.22;;;;;;;6.38;57.94;149263.45;1766733;79;21056;-60
2022/02/01 11:32:51;;;;;;;31.42;13.43;;;;;;;6.39;57.91;149264.78;1699406;79;21135;-60
2022/02/01 11:35:23;;;;;;;28.73;11.00;;;;;;;6.39;58.04;149264.78;1742999;80;21742;-60
2022/02/01 11:37:54;;;;;;;21.70;10.10;;;;;;;6.38;58.46;149263.45;1770600;79;21087;-61
2022/02/01 11:40:23;;;;;;;26.05;10.68;;;;;;;6.36;58.62;149258.28;1768122;80;21688;-59
2022/02/01 11:42:56;;;;;;;24.77;9.80;;;;;;;6.35;58.91;149254.44;1771750;79;21595;-61
2022/02/01 11:45:40;;;;;;;23.00;10.00;;;;;;;6.33;59.11;149249.27;1751307;79;21071;-59
2022/02/01 11:48:23;;;;;;;27.53;10.07;;;;;;;6.29;59.33;149241.47;1763934;78;21071;-60
2022/02/01 11:50:54;;;;;;;22.80;10.38;;;;;;;6.24;59.37;149228.53;1755509;79;21115;-60
2022/02/01 11:53:24;;;;;;;26.85;10.50;;;;;;;6.20;59.34;149216.94;1752338;79;21103;-59
2022/02/01 11:55:53;;;;;;;24.02;10.93;;;;;;;6.17;59.26;149210.44;1758285;79;21564;-61
2022/02/01 11:58:32;;;;;;;25.77;10.53;;;;;;;6.14;59.22;149202.69;1768130;79;21046;-59
2022/02/01 12:01:00;;;;;;;19.82;8.18;;;;;;;6.12;58.94;149198.80;1754849;79;21044;-62
2022/02/01 12:03:31;;;;;;;16.10;8.43;;;;;;;6.10;58.86;149192.36;1776334;79;21099;-62
2022/02/01 12:06:05;;;;;;;16.70;6.95;;;;;;;6.10;58.69;149192.36;1770262;79;21121;-60
2022/02/01 12:08:31;;;;;;;19.23;7.50;;;;;;;6.09;58.07;149191.03;1782019;78;21056;-60
2022/02/01 12:11:01;;;;;;;18.12;7.67;;;;;;;6.07;57.64;149184.55;1746967;80;21017;-61
2022/02/01 12:13:31;;;;;;;19.60;7.12;;;;;;;6.07;57.43;149184.55;1782956;78;21571;-60
2022/02/01 12:16:00;;;;;;;14.80;6.83;;;;;;;6.09;57.13;149189.77;1761425;79;21077;-60
2022/02/01 12:19:03;;;;;;;18.42;7.28;;;;;;;6.13;56.97;149200.11;1760447;79;21584;-59
2022/02/01 12:21:44;;;;;;;17.30;7.75;;;;;;;6.16;56.80;149207.86;1762229;79;21067;-60
2022/02/01 12:24:11;;;;;;;18.75;8.05;;;;;;;6.18;56.69;149213.03;1760615;79;21031;-60
2022/02/01 12:26:41;;;;;;;14.87;7.17;;;;;;;6.18;56.63;149211.72;1762693;79;21131;-61
2022/02/01 12:29:10;;;;;;;14.78;6.30;;;;;;;6.19;56.52;149215.62;1781441;78;21947;-60
2022/02/01 12:31:40;;;;;;;11.70;5.67;;;;;;;6.21;55.79;149220.78;1763334;79;21944;-60
2022/02/01 12:34:12;;;;;;;12.07;5.83;;;;;;;6.22;55.50;149223.37;1773265;79;21052;-60
2022/02/01 12:36:44;;;;;;;11.90;5.60;;;;;;;6.21;55.35;149220.78;1759012;79;32616;-61
2022/02/01 12:39:24;;;;;;;15.88;5.80;;;;;;;6.19;55.18;149214.30;1759441;79;20987;-60
2022/02/01 12:47:03;;;;;;;12.45;5.67;;;;;;;6.17;54.62;149210.44;1744273;80;21072;-60
2022/02/01 12:49:40;;;;;;;11.40;5.45;;;;;;;6.18;54.70;149213.03;1739262;80;21077;-60
2022/02/01 12:52:30;;;;;;;14.65;5.53;;;;;;;6.18;54.76;149213.03;1741173;80;21111;-59
2022/02/01 12:55:13;;;;;;;13.30;5.65;;;;;;;6.16;54.92;149209.13;1741347;80;21286;-60
2022/02/01 12:57:40;;;;;;;10.00;5.35;;;;;;;6.19;55.01;149215.62;1732254;80;21124;-61
2022/02/01 13:00:14;;;;;;;24.25;8.95;;;;;;;6.16;55.13;149207.86;1692631;80;21422;-60